sensor_id;sensor_type;location;lat;lon;timestamp;P1;durP1;ratioP1;P2;durP2;ratioP2
15116;SDS011;7659;51.038;13.786;2022-12-18T00:01:40;80.80;;;39.13;;
15116;SDS011;7659;51.038;13.786;2022-12-18T00:04:06;78.38;;;38.35;;
15116;SDS011;7659;51.038;13.786;2022-12-18T00:06:33;78.95;;;38.20;;
15116;SDS011;7659;51.038;13.786;2022-12-18T00:08:59;76.93;;;37.88;;
15116;SDS011;7659;51.038;13.786;2022-12-18T00:11:25;74.47;;;37.38;;
15116;SDS011;7659;51.038;13.786;2022-12-18T00:13:52;73.50;;;35.45;;
15116;SDS011;7659;51.038;13.786;2022-12-18T00:16:20;79.88;;;37.78;;
15116;SDS011;7659;51.038;13.786;2022-12-18T00:18:46;70.25;;;34.83;;
15116;SDS011;7659;51.038;13.786;2022-12-18T00:21:12;71.28;;;36.28;;
15116;SDS011;7659;51.038;13.786;2022-12-18T00:23:38;69.30;;;35.38;;
15116;SDS011;7659;51.038;13.786;2022-12-18T00:26:05;68.97;;;34.70;;
15116;SDS011;7659;51.038;13.786;2022-12-18T00:28:30;73.05;;;35.50;;
15116;SDS011;7659;51.038;13.786;2022-12-18T00:31:02;73.35;;;35.83;;
15116;SDS011;7659;51.038;13.786;2022-12-18T00:33:28;73.60;;;35.17;;
15116;SDS011;7659;51.038;13.786;2022-12-18T00:35:54;74.47;;;35.22;;
15116;SDS011;7659;51.038;13.786;2022-12-18T00:38:19;76.72;;;36.50;;
15116;SDS011;7659;51.038;13.786;2022-12-18T00:40:45;73.30;;;35.30;;
15116;SDS011;7659;51.038;13.786;2022-12-18T00:43:11;74.25;;;36.60;;
15116;SDS011;7659;51.038;13.786;2022-12-18T00:45:37;69.22;;;33.95;;
15116;SDS011;7659;51.038;13.786;2022-12-18T00:48:02;63.88;;;32.38;;
15116;SDS011;7659;51.038;13.786;2022-12-18T00:50:28;66.22;;;31.77;;
15116;SDS011;7659;51.038;13.786;2022-12-18T00:52:53;62.28;;;30.40;;
15116;SDS011;7659;51.038;13.786;2022-12-18T00:55:19;65.03;;;30.38;;
15116;SDS011;7659;51.038;13.786;2022-12-18T00:57:45;65.13;;;29.02;;
15116;SDS011;7659;51.038;13.786;2022-12-18T01:00:12;60.03;;;29.80;;
15116;SDS011;7659;51.038;13.786;2022-12-18T01:02:38;63.88;;;32.35;;
15116;SDS011;7659;51.038;13.786;2022-12-18T01:05:06;69.30;;;32.15;;
15116;SDS011;7659;51.038;13.786;2022-12-18T01:07:31;67.25;;;32.05;;
15116;SDS011;7659;51.038;13.786;2022-12-18T01:09:57;65.45;;;30.48;;
15116;SDS011;7659;51.038;13.786;2022-12-18T01:12:22;62.17;;;30.27;;
15116;SDS011;7659;51.038;13.786;2022-12-18T01:14:49;57.88;;;28.20;;
15116;SDS011;7659;51.038;13.786;2022-12-18T01:17:15;56.72;;;27.65;;
15116;SDS011;7659;51.038;13.786;2022-12-18T01:19:40;58.55;;;28.27;;
15116;SDS011;7659;51.038;13.786;2022-12-18T01:22:09;56.17;;;26.77;;
15116;SDS011;7659;51.038;13.786;2022-12-18T01:24:34;57.97;;;27.17;;
15116;SDS011;7659;51.038;13.786;2022-12-18T01:27:00;56.13;;;26.17;;
15116;SDS011;7659;51.038;13.786;2022-12-18T01:29:25;52.38;;;25.17;;
15116;SDS011;7659;51.038;13.786;2022-12-18T01:31:50;49.83;;;23.38;;
15116;SDS011;7659;51.038;13.786;2022-12-18T01:34:16;49.33;;;23.80;;
15116;SDS011;7659;51.038;13.786;2022-12-18T01:36:42;56.65;;;25.10;;
15116;SDS011;7659;51.038;13.786;2022-12-18T01:39:09;51.40;;;25.05;;
15116;SDS011;7659;51.038;13.786;2022-12-18T01:41:35;50.05;;;24.48;;
15116;SDS011;7659;51.038;13.786;2022-12-18T01:46:45;44.55;;;22.10;;
15116;SDS011;7659;51.038;13.786;2022-12-18T01:49:10;46.67;;;23.98;;
15116;SDS011;7659;51.038;13.786;2022-12-18T01:51:35;45.65;;;23.13;;
15116;SDS011;7659;51.038;13.786;2022-12-18T01:54:01;50.80;;;23.70;;
15116;SDS011;7659;51.038;13.786;2022-12-18T01:56:26;50.58;;;23.77;;
15116;SDS011;7659;51.038;13.786;2022-12-18T01:58:59;48.35;;;24.25;;
15116;SDS011;7659;51.038;13.786;2022-12-18T02:03:51;49.78;;;22.92;;
15116;SDS011;7659;51.038;13.786;2022-12-18T02:16:21;43.65;;;22.63;;
15116;SDS011;7659;51.038;13.786;2022-12-18T02:18:52;47.17;;;24.02;;
15116;SDS011;7659;51.038;13.786;2022-12-18T02:26:40;48.75;;;22.92;;
15116;SDS011;7659;51.038;13.786;2022-12-18T02:29:13;42.42;;;21.25;;
15116;SDS011;7659;51.038;13.786;2022-12-18T02:31:49;43.70;;;21.83;;
15116;SDS011;7659;51.038;13.786;2022-12-18T02:34:16;54.35;;;23.48;;
15116;SDS011;7659;51.038;13.786;2022-12-18T02:36:43;40.47;;;19.85;;
15116;SDS011;7659;51.038;13.786;2022-12-18T02:39:10;46.60;;;21.00;;
15116;SDS011;7659;51.038;13.786;2022-12-18T02:41:41;37.20;;;20.40;;
15116;SDS011;7659;51.038;13.786;2022-12-18T02:44:08;38.08;;;17.90;;
15116;SDS011;7659;51.038;13.786;2022-12-18T02:49:28;40.55;;;18.15;;
15116;SDS011;7659;51.038;13.786;2022-12-18T02:51:54;32.00;;;16.98;;
15116;SDS011;7659;51.038;13.786;2022-12-18T02:56:56;32.08;;;16.48;;
15116;SDS011;7659;51.038;13.786;2022-12-18T02:59:26;29.70;;;15.50;;
15116;SDS011;7659;51.038;13.786;2022-12-18T03:01:56;34.00;;;16.88;;
15116;SDS011;7659;51.038;13.786;2022-12-18T03:04:28;33.88;;;17.38;;
15116;SDS011;7659;51.038;13.786;2022-12-18T03:06:56;31.95;;;16.63;;
15116;SDS011;7659;51.038;13.786;2022-12-18T03:09:28;36.85;;;18.08;;
15116;SDS011;7659;51.038;13.786;2022-12-18T03:11:56;36.15;;;18.70;;
15116;SDS011;7659;51.038;13.786;2022-12-18T03:14:44;33.78;;;16.83;;
15116;SDS011;7659;51.038;13.786;2022-12-18T03:17:13;34.13;;;16.92;;
15116;SDS011;7659;51.038;13.786;2022-12-18T03:19:39;37.22;;;17.83;;
15116;SDS011;7659;51.038;13.786;2022-12-18T03:22:06;36.95;;;16.00;;
15116;SDS011;7659;51.038;13.786;2022-12-18T03:24:41;32.45;;;17.75;;
15116;SDS011;7659;51.038;13.786;2022-12-18T03:27:11;34.83;;;17.23;;
15116;SDS011;7659;51.038;13.786;2022-12-18T03:32:11;31.33;;;15.80;;
15116;SDS011;7659;51.038;13.786;2022-12-18T03:34:37;33.47;;;16.17;;
15116;SDS011;7659;51.038;13.786;2022-12-18T03:37:06;33.42;;;15.75;;
15116;SDS011;7659;51.038;13.786;2022-12-18T03:39:33;29.27;;;14.90;;
15116;SDS011;7659;51.038;13.786;2022-12-18T03:52:25;28.85;;;13.23;;
15116;SDS011;7659;51.038;13.786;2022-12-18T03:54:53;25.58;;;13.43;;
15116;SDS011;7659;51.038;13.786;2022-12-18T03:57:20;27.85;;;14.23;;
15116;SDS011;7659;51.038;13.786;2022-12-18T03:59:50;28.13;;;13.15;;
15116;SDS011;7659;51.038;13.786;2022-12-18T04:02:18;25.10;;;13.65;;
15116;SDS011;7659;51.038;13.786;2022-12-18T04:04:45;25.52;;;12.73;;
15116;SDS011;7659;51.038;13.786;2022-12-18T04:07:13;25.65;;;12.45;;
15116;SDS011;7659;51.038;13.786;2022-12-18T04:09:40;24.23;;;12.10;;
15116;SDS011;7659;51.038;13.786;2022-12-18T04:12:06;25.40;;;13.07;;
15116;SDS011;7659;51.038;13.786;2022-12-18T04:14:31;25.98;;;12.55;;
15116;SDS011;7659;51.038;13.786;2022-12-18T04:17:02;32.60;;;12.52;;
15116;SDS011;7659;51.038;13.786;2022-12-18T04:19:30;25.13;;;12.20;;
15116;SDS011;7659;51.038;13.786;2022-12-18T04:21:56;23.38;;;13.38;;
15116;SDS011;7659;51.038;13.786;2022-12-18T04:24:22;25.13;;;12.52;;
15116;SDS011;7659;51.038;13.786;2022-12-18T04:26:59;26.90;;;12.57;;
15116;SDS011;7659;51.038;13.786;2022-12-18T04:29:30;22.73;;;11.13;;
15116;SDS011;7659;51.038;13.786;2022-12-18T04:31:56;26.38;;;11.88;;
15116;SDS011;7659;51.038;13.786;2022-12-18T04:34:24;23.85;;;11.77;;
15116;SDS011;7659;51.038;13.786;2022-12-18T04:36:53;25.48;;;12.05;;
15116;SDS011;7659;51.038;13.786;2022-12-18T04:39:20;23.42;;;12.65;;
15116;SDS011;7659;51.038;13.786;2022-12-18T04:41:48;24.48;;;11.93;;
15116;SDS011;7659;51.038;13.786;2022-12-18T04:44:14;24.25;;;12.00;;
15116;SDS011;7659;51.038;13.786;2022-12-18T04:46:39;24.60;;;12.30;;
15116;SDS011;7659;51.038;13.786;2022-12-18T04:49:05;29.13;;;13.15;;
15116;SDS011;7659;51.038;13.786;2022-12-18T04:51:30;26.65;;;12.07;;
15116;SDS011;7659;51.038;13.786;2022-12-18T04:53:56;23.92;;;11.25;;
15116;SDS011;7659;51.038;13.786;2022-12-18T04:56:21;27.20;;;12.13;;
15116;SDS011;7659;51.038;13.786;2022-12-18T04:58:47;29.55;;;12.60;;
15116;SDS011;7659;51.038;13.786;2022-12-18T05:01:13;27.50;;;12.32;;
15116;SDS011;7659;51.038;13.786;2022-12-18T05:03:39;25.15;;;11.30;;
15116;SDS011;7659;51.038;13.786;2022-12-18T05:06:05;23.73;;;12.27;;
15116;SDS011;7659;51.038;13.786;2022-12-18T05:08:31;24.90;;;12.70;;
15116;SDS011;7659;51.038;13.786;2022-12-18T05:11:03;20.65;;;11.52;;
15116;SDS011;7659;51.038;13.786;2022-12-18T05:13:29;18.77;;;9.23;;
15116;SDS011;7659;51.038;13.786;2022-12-18T05:15:55;23.70;;;12.10;;
15116;SDS011;7659;51.038;13.786;2022-12-18T05:18:21;23.63;;;11.55;;
15116;SDS011;7659;51.038;13.786;2022-12-18T05:20:47;23.38;;;12.05;;
15116;SDS011;7659;51.038;13.786;2022-12-18T05:23:12;29.00;;;12.25;;
15116;SDS011;7659;51.038;13.786;2022-12-18T05:25:38;25.08;;;11.77;;
15116;SDS011;7659;51.038;13.786;2022-12-18T05:28:03;25.00;;;11.45;;
15116;SDS011;7659;51.038;13.786;2022-12-18T05:30:29;25.98;;;12.45;;
15116;SDS011;7659;51.038;13.786;2022-12-18T05:32:54;28.33;;;12.75;;
15116;SDS011;7659;51.038;13.786;2022-12-18T05:35:19;23.08;;;11.60;;
15116;SDS011;7659;51.038;13.786;2022-12-18T05:37:45;25.42;;;11.40;;
15116;SDS011;7659;51.038;13.786;2022-12-18T05:40:11;22.98;;;11.00;;
15116;SDS011;7659;51.038;13.786;2022-12-18T05:42:36;24.17;;;12.02;;
15116;SDS011;7659;51.038;13.786;2022-12-18T05:45:02;25.50;;;12.02;;
15116;SDS011;7659;51.038;13.786;2022-12-18T05:47:27;22.83;;;11.95;;
15116;SDS011;7659;51.038;13.786;2022-12-18T05:49:54;25.60;;;10.98;;
15116;SDS011;7659;51.038;13.786;2022-12-18T05:52:19;21.45;;;10.80;;
15116;SDS011;7659;51.038;13.786;2022-12-18T05:54:45;25.98;;;11.75;;
15116;SDS011;7659;51.038;13.786;2022-12-18T05:57:10;23.42;;;11.75;;
15116;SDS011;7659;51.038;13.786;2022-12-18T05:59:35;22.98;;;11.73;;
15116;SDS011;7659;51.038;13.786;2022-12-18T06:02:01;23.35;;;11.75;;
15116;SDS011;7659;51.038;13.786;2022-12-18T06:04:27;23.83;;;11.40;;
15116;SDS011;7659;51.038;13.786;2022-12-18T06:06:55;22.27;;;11.60;;
15116;SDS011;7659;51.038;13.786;2022-12-18T06:09:21;25.73;;;11.57;;
15116;SDS011;7659;51.038;13.786;2022-12-18T06:11:46;22.33;;;11.07;;
15116;SDS011;7659;51.038;13.786;2022-12-18T06:14:12;22.35;;;10.95;;
15116;SDS011;7659;51.038;13.786;2022-12-18T06:16:38;23.75;;;11.55;;
15116;SDS011;7659;51.038;13.786;2022-12-18T06:19:03;25.33;;;10.05;;
15116;SDS011;7659;51.038;13.786;2022-12-18T06:21:29;27.23;;;12.07;;
15116;SDS011;7659;51.038;13.786;2022-12-18T06:23:55;22.55;;;11.38;;
15116;SDS011;7659;51.038;13.786;2022-12-18T06:26:21;23.92;;;11.35;;
15116;SDS011;7659;51.038;13.786;2022-12-18T06:28:46;23.00;;;11.10;;
15116;SDS011;7659;51.038;13.786;2022-12-18T06:31:12;22.58;;;11.48;;
15116;SDS011;7659;51.038;13.786;2022-12-18T06:33:37;23.58;;;11.25;;
15116;SDS011;7659;51.038;13.786;2022-12-18T06:36:10;24.52;;;11.73;;
15116;SDS011;7659;51.038;13.786;2022-12-18T06:38:37;24.27;;;11.50;;
15116;SDS011;7659;51.038;13.786;2022-12-18T06:41:06;22.55;;;10.90;;
15116;SDS011;7659;51.038;13.786;2022-12-18T06:43:32;24.05;;;11.95;;
15116;SDS011;7659;51.038;13.786;2022-12-18T06:46:00;25.83;;;11.65;;
15116;SDS011;7659;51.038;13.786;2022-12-18T06:48:26;25.20;;;11.85;;
15116;SDS011;7659;51.038;13.786;2022-12-18T06:50:51;22.85;;;10.85;;
15116;SDS011;7659;51.038;13.786;2022-12-18T06:53:17;23.27;;;10.98;;
15116;SDS011;7659;51.038;13.786;2022-12-18T06:55:42;22.10;;;11.73;;
15116;SDS011;7659;51.038;13.786;2022-12-18T06:58:08;27.75;;;12.65;;
15116;SDS011;7659;51.038;13.786;2022-12-18T07:00:33;27.80;;;12.43;;
15116;SDS011;7659;51.038;13.786;2022-12-18T07:02:59;26.77;;;12.60;;
15116;SDS011;7659;51.038;13.786;2022-12-18T07:05:24;30.05;;;13.50;;
15116;SDS011;7659;51.038;13.786;2022-12-18T07:07:50;29.67;;;13.32;;
15116;SDS011;7659;51.038;13.786;2022-12-18T07:10:15;23.38;;;12.40;;
15116;SDS011;7659;51.038;13.786;2022-12-18T07:12:40;29.85;;;13.07;;
15116;SDS011;7659;51.038;13.786;2022-12-18T07:15:06;25.58;;;12.75;;
15116;SDS011;7659;51.038;13.786;2022-12-18T07:17:32;23.58;;;12.35;;
15116;SDS011;7659;51.038;13.786;2022-12-18T07:19:57;27.33;;;13.05;;
15116;SDS011;7659;51.038;13.786;2022-12-18T07:22:24;26.40;;;13.07;;
15116;SDS011;7659;51.038;13.786;2022-12-18T07:24:50;29.10;;;13.57;;
15116;SDS011;7659;51.038;13.786;2022-12-18T07:27:15;26.38;;;12.82;;
15116;SDS011;7659;51.038;13.786;2022-12-18T07:29:41;23.80;;;12.63;;
15116;SDS011;7659;51.038;13.786;2022-12-18T07:32:07;28.60;;;13.20;;
15116;SDS011;7659;51.038;13.786;2022-12-18T07:34:32;25.25;;;13.27;;
15116;SDS011;7659;51.038;13.786;2022-12-18T07:36:58;26.98;;;12.25;;
15116;SDS011;7659;51.038;13.786;2022-12-18T07:39:23;28.65;;;13.23;;
15116;SDS011;7659;51.038;13.786;2022-12-18T07:41:49;28.33;;;14.32;;
15116;SDS011;7659;51.038;13.786;2022-12-18T07:44:34;27.73;;;13.60;;
15116;SDS011;7659;51.038;13.786;2022-12-18T07:47:00;27.10;;;14.05;;
15116;SDS011;7659;51.038;13.786;2022-12-18T07:49:25;27.60;;;14.02;;
15116;SDS011;7659;51.038;13.786;2022-12-18T07:51:50;28.65;;;14.02;;
15116;SDS011;7659;51.038;13.786;2022-12-18T07:54:16;30.15;;;14.50;;
15116;SDS011;7659;51.038;13.786;2022-12-18T07:56:41;28.40;;;14.05;;
15116;SDS011;7659;51.038;13.786;2022-12-18T07:59:07;34.17;;;15.45;;
15116;SDS011;7659;51.038;13.786;2022-12-18T08:01:33;30.20;;;14.68;;
15116;SDS011;7659;51.038;13.786;2022-12-18T08:03:59;27.77;;;14.20;;
15116;SDS011;7659;51.038;13.786;2022-12-18T08:06:24;26.02;;;13.25;;
15116;SDS011;7659;51.038;13.786;2022-12-18T08:08:54;29.55;;;14.73;;
15116;SDS011;7659;51.038;13.786;2022-12-18T08:11:20;32.85;;;16.15;;
15116;SDS011;7659;51.038;13.786;2022-12-18T08:13:45;34.63;;;17.33;;
15116;SDS011;7659;51.038;13.786;2022-12-18T08:16:11;35.25;;;17.17;;
15116;SDS011;7659;51.038;13.786;2022-12-18T08:18:37;34.65;;;17.42;;
15116;SDS011;7659;51.038;13.786;2022-12-18T08:21:09;32.55;;;16.80;;
15116;SDS011;7659;51.038;13.786;2022-12-18T08:23:34;34.65;;;17.83;;
15116;SDS011;7659;51.038;13.786;2022-12-18T08:26:00;36.50;;;18.30;;
15116;SDS011;7659;51.038;13.786;2022-12-18T08:28:26;42.75;;;21.05;;
15116;SDS011;7659;51.038;13.786;2022-12-18T08:30:51;40.83;;;19.95;;
15116;SDS011;7659;51.038;13.786;2022-12-18T08:33:17;38.67;;;19.70;;
15116;SDS011;7659;51.038;13.786;2022-12-18T08:35:42;44.17;;;21.50;;
15116;SDS011;7659;51.038;13.786;2022-12-18T08:38:08;46.40;;;22.13;;
15116;SDS011;7659;51.038;13.786;2022-12-18T08:40:33;49.67;;;22.20;;
15116;SDS011;7659;51.038;13.786;2022-12-18T08:42:59;47.15;;;22.17;;
15116;SDS011;7659;51.038;13.786;2022-12-18T08:45:43;46.58;;;22.23;;
15116;SDS011;7659;51.038;13.786;2022-12-18T08:48:08;45.53;;;21.17;;
15116;SDS011;7659;51.038;13.786;2022-12-18T08:50:34;49.38;;;21.38;;
15116;SDS011;7659;51.038;13.786;2022-12-18T08:53:00;43.40;;;21.70;;
15116;SDS011;7659;51.038;13.786;2022-12-18T08:55:25;46.35;;;22.80;;
15116;SDS011;7659;51.038;13.786;2022-12-18T08:57:51;45.38;;;23.38;;
15116;SDS011;7659;51.038;13.786;2022-12-18T09:00:16;46.05;;;21.50;;
15116;SDS011;7659;51.038;13.786;2022-12-18T09:02:42;51.83;;;24.52;;
15116;SDS011;7659;51.038;13.786;2022-12-18T09:05:08;48.53;;;24.75;;
15116;SDS011;7659;51.038;13.786;2022-12-18T09:07:34;47.20;;;24.33;;
15116;SDS011;7659;51.038;13.786;2022-12-18T09:09:59;51.10;;;25.73;;
15116;SDS011;7659;51.038;13.786;2022-12-18T09:12:25;53.45;;;24.38;;
15116;SDS011;7659;51.038;13.786;2022-12-18T09:14:50;50.35;;;24.40;;
15116;SDS011;7659;51.038;13.786;2022-12-18T09:17:16;49.15;;;25.13;;
15116;SDS011;7659;51.038;13.786;2022-12-18T09:19:41;49.63;;;24.25;;
15116;SDS011;7659;51.038;13.786;2022-12-18T09:22:07;52.75;;;25.90;;
15116;SDS011;7659;51.038;13.786;2022-12-18T09:24:32;57.13;;;27.08;;
15116;SDS011;7659;51.038;13.786;2022-12-18T09:26:58;56.17;;;26.67;;
15116;SDS011;7659;51.038;13.786;2022-12-18T09:29:24;51.53;;;25.55;;
15116;SDS011;7659;51.038;13.786;2022-12-18T09:31:49;57.25;;;27.02;;
15116;SDS011;7659;51.038;13.786;2022-12-18T09:34:15;59.10;;;27.45;;
15116;SDS011;7659;51.038;13.786;2022-12-18T09:36:40;56.15;;;27.63;;
15116;SDS011;7659;51.038;13.786;2022-12-18T09:39:06;55.58;;;27.42;;
15116;SDS011;7659;51.038;13.786;2022-12-18T09:46:38;53.30;;;25.40;;
15116;SDS011;7659;51.038;13.786;2022-12-18T09:49:06;55.33;;;26.38;;
15116;SDS011;7659;51.038;13.786;2022-12-18T09:51:36;69.63;;;30.17;;
15116;SDS011;7659;51.038;13.786;2022-12-18T09:54:12;52.05;;;26.02;;
15116;SDS011;7659;51.038;13.786;2022-12-18T09:56:40;52.47;;;25.00;;
15116;SDS011;7659;51.038;13.786;2022-12-18T09:59:09;52.97;;;24.45;;
15116;SDS011;7659;51.038;13.786;2022-12-18T10:01:41;52.45;;;25.52;;
15116;SDS011;7659;51.038;13.786;2022-12-18T10:04:07;53.25;;;25.33;;
15116;SDS011;7659;51.038;13.786;2022-12-18T10:06:42;47.97;;;23.90;;
15116;SDS011;7659;51.038;13.786;2022-12-18T10:14:24;48.63;;;24.13;;
15116;SDS011;7659;51.038;13.786;2022-12-18T10:17:14;46.30;;;23.20;;
15116;SDS011;7659;51.038;13.786;2022-12-18T10:19:49;50.92;;;22.63;;
15116;SDS011;7659;51.038;13.786;2022-12-18T10:27:29;53.00;;;25.63;;
15116;SDS011;7659;51.038;13.786;2022-12-18T10:29:55;47.15;;;23.70;;
15116;SDS011;7659;51.038;13.786;2022-12-18T10:32:26;50.67;;;23.02;;
15116;SDS011;7659;51.038;13.786;2022-12-18T10:34:53;47.00;;;24.60;;
15116;SDS011;7659;51.038;13.786;2022-12-18T10:37:20;49.45;;;23.23;;
15116;SDS011;7659;51.038;13.786;2022-12-18T10:39:46;49.30;;;23.35;;
15116;SDS011;7659;51.038;13.786;2022-12-18T10:42:29;46.38;;;23.88;;
15116;SDS011;7659;51.038;13.786;2022-12-18T10:45:08;45.95;;;23.40;;
15116;SDS011;7659;51.038;13.786;2022-12-18T10:47:34;46.28;;;22.88;;
15116;SDS011;7659;51.038;13.786;2022-12-18T10:50:00;53.38;;;25.33;;
15116;SDS011;7659;51.038;13.786;2022-12-18T10:52:26;44.72;;;22.85;;
15116;SDS011;7659;51.038;13.786;2022-12-18T10:54:57;75.93;;;35.80;;
15116;SDS011;7659;51.038;13.786;2022-12-18T10:59:56;49.80;;;23.83;;
15116;SDS011;7659;51.038;13.786;2022-12-18T11:02:25;49.38;;;23.83;;
15116;SDS011;7659;51.038;13.786;2022-12-18T11:04:51;48.60;;;24.83;;
15116;SDS011;7659;51.038;13.786;2022-12-18T11:07:17;48.72;;;24.85;;
15116;SDS011;7659;51.038;13.786;2022-12-18T11:09:42;50.08;;;24.90;;
15116;SDS011;7659;51.038;13.786;2022-12-18T11:12:15;52.63;;;25.88;;
15116;SDS011;7659;51.038;13.786;2022-12-18T11:14:42;49.90;;;24.23;;
15116;SDS011;7659;51.038;13.786;2022-12-18T11:17:19;47.00;;;23.17;;
15116;SDS011;7659;51.038;13.786;2022-12-18T11:19:44;47.60;;;24.02;;
15116;SDS011;7659;51.038;13.786;2022-12-18T11:22:20;51.97;;;25.77;;
15116;SDS011;7659;51.038;13.786;2022-12-18T11:24:59;49.97;;;23.90;;
15116;SDS011;7659;51.038;13.786;2022-12-18T11:27:26;45.10;;;21.45;;
15116;SDS011;7659;51.038;13.786;2022-12-18T11:29:51;45.40;;;22.88;;
15116;SDS011;7659;51.038;13.786;2022-12-18T11:32:34;49.20;;;22.70;;
15116;SDS011;7659;51.038;13.786;2022-12-18T11:37:32;43.40;;;22.50;;
15116;SDS011;7659;51.038;13.786;2022-12-18T11:39:59;43.42;;;22.17;;
15116;SDS011;7659;51.038;13.786;2022-12-18T11:42:35;42.97;;;22.17;;
15116;SDS011;7659;51.038;13.786;2022-12-18T11:50:05;46.40;;;23.52;;
15116;SDS011;7659;51.038;13.786;2022-12-18T11:52:36;44.55;;;22.80;;
15116;SDS011;7659;51.038;13.786;2022-12-18T11:55:13;44.50;;;21.63;;
15116;SDS011;7659;51.038;13.786;2022-12-18T12:00:24;43.08;;;22.40;;
15116;SDS011;7659;51.038;13.786;2022-12-18T12:08:12;59.88;;;30.10;;
15116;SDS011;7659;51.038;13.786;2022-12-18T12:10:42;40.13;;;20.42;;
15116;SDS011;7659;51.038;13.786;2022-12-18T12:13:35;44.47;;;21.92;;
15116;SDS011;7659;51.038;13.786;2022-12-18T12:26:27;41.28;;;20.25;;
15116;SDS011;7659;51.038;13.786;2022-12-18T12:39:32;38.63;;;19.40;;
15116;SDS011;7659;51.038;13.786;2022-12-18T12:41:59;38.63;;;21.00;;
15116;SDS011;7659;51.038;13.786;2022-12-18T12:47:19;41.42;;;20.48;;
15116;SDS011;7659;51.038;13.786;2022-12-18T12:49:46;41.40;;;20.60;;
15116;SDS011;7659;51.038;13.786;2022-12-18T12:52:57;41.25;;;20.15;;
15116;SDS011;7659;51.038;13.786;2022-12-18T12:54:58;37.67;;;20.40;;
15116;SDS011;7659;51.038;13.786;2022-12-18T12:57:31;41.35;;;20.75;;
15116;SDS011;7659;51.038;13.786;2022-12-18T13:02:34;43.58;;;20.90;;
15116;SDS011;7659;51.038;13.786;2022-12-18T13:05:02;42.45;;;20.70;;
15116;SDS011;7659;51.038;13.786;2022-12-18T13:07:37;40.33;;;19.63;;
15116;SDS011;7659;51.038;13.786;2022-12-18T13:20:34;43.60;;;21.70;;
15116;SDS011;7659;51.038;13.786;2022-12-18T13:23:00;41.03;;;21.10;;
15116;SDS011;7659;51.038;13.786;2022-12-18T13:25:30;45.47;;;22.58;;
15116;SDS011;7659;51.038;13.786;2022-12-18T13:27:59;46.05;;;22.23;;
15116;SDS011;7659;51.038;13.786;2022-12-18T13:45:47;45.95;;;22.40;;
15116;SDS011;7659;51.038;13.786;2022-12-18T13:48:23;42.95;;;21.55;;
15116;SDS011;7659;51.038;13.786;2022-12-18T13:51:08;42.65;;;20.58;;
15116;SDS011;7659;51.038;13.786;2022-12-18T13:53:39;38.15;;;20.10;;
15116;SDS011;7659;51.038;13.786;2022-12-18T13:56:07;42.05;;;20.13;;
15116;SDS011;7659;51.038;13.786;2022-12-18T13:58:33;37.38;;;19.70;;
15116;SDS011;7659;51.038;13.786;2022-12-18T14:00:58;35.10;;;17.85;;
15116;SDS011;7659;51.038;13.786;2022-12-18T14:03:25;40.20;;;19.15;;
15116;SDS011;7659;51.038;13.786;2022-12-18T14:06:03;31.98;;;16.52;;
15116;SDS011;7659;51.038;13.786;2022-12-18T14:08:35;35.33;;;16.40;;
15116;SDS011;7659;51.038;13.786;2022-12-18T14:11:02;33.97;;;17.45;;
15116;SDS011;7659;51.038;13.786;2022-12-18T14:13:32;32.90;;;17.35;;
15116;SDS011;7659;51.038;13.786;2022-12-18T14:16:00;35.03;;;17.77;;
15116;SDS011;7659;51.038;13.786;2022-12-18T14:18:27;34.78;;;18.20;;
15116;SDS011;7659;51.038;13.786;2022-12-18T14:20:55;35.20;;;17.58;;
15116;SDS011;7659;51.038;13.786;2022-12-18T14:23:29;32.53;;;16.38;;
15116;SDS011;7659;51.038;13.786;2022-12-18T14:25:54;36.78;;;17.55;;
15116;SDS011;7659;51.038;13.786;2022-12-18T14:28:20;36.95;;;18.40;;
15116;SDS011;7659;51.038;13.786;2022-12-18T14:30:47;32.67;;;17.02;;
15116;SDS011;7659;51.038;13.786;2022-12-18T14:35:40;35.03;;;16.83;;
15116;SDS011;7659;51.038;13.786;2022-12-18T14:38:49;38.55;;;18.27;;
15116;SDS011;7659;51.038;13.786;2022-12-18T14:40:55;37.67;;;17.67;;
15116;SDS011;7659;51.038;13.786;2022-12-18T14:43:24;42.47;;;19.05;;
15116;SDS011;7659;51.038;13.786;2022-12-18T14:45:49;39.15;;;18.48;;
15116;SDS011;7659;51.038;13.786;2022-12-18T14:48:59;36.40;;;18.17;;
15116;SDS011;7659;51.038;13.786;2022-12-18T14:53:34;37.33;;;18.38;;
15116;SDS011;7659;51.038;13.786;2022-12-18T14:56:01;39.55;;;17.60;;
15116;SDS011;7659;51.038;13.786;2022-12-18T14:58:26;41.67;;;19.38;;
15116;SDS011;7659;51.038;13.786;2022-12-18T15:00:52;38.50;;;19.83;;
15116;SDS011;7659;51.038;13.786;2022-12-18T15:03:18;40.50;;;19.25;;
15116;SDS011;7659;51.038;13.786;2022-12-18T15:05:45;40.95;;;18.45;;
15116;SDS011;7659;51.038;13.786;2022-12-18T15:11:32;38.22;;;19.40;;
15116;SDS011;7659;51.038;13.786;2022-12-18T15:13:58;44.08;;;19.67;;
15116;SDS011;7659;51.038;13.786;2022-12-18T15:16:24;39.83;;;18.88;;
15116;SDS011;7659;51.038;13.786;2022-12-18T15:18:49;40.17;;;19.10;;
15116;SDS011;7659;51.038;13.786;2022-12-18T15:21:18;41.45;;;19.35;;
15116;SDS011;7659;51.038;13.786;2022-12-18T15:26:10;45.25;;;20.10;;
15116;SDS011;7659;51.038;13.786;2022-12-18T15:28:38;45.22;;;20.05;;
15116;SDS011;7659;51.038;13.786;2022-12-18T15:33:40;41.38;;;19.52;;
15116;SDS011;7659;51.038;13.786;2022-12-18T15:36:09;43.70;;;20.95;;
15116;SDS011;7659;51.038;13.786;2022-12-18T15:38:35;37.80;;;17.50;;
15116;SDS011;7659;51.038;13.786;2022-12-18T15:41:01;43.33;;;18.60;;
15116;SDS011;7659;51.038;13.786;2022-12-18T15:43:27;42.17;;;18.45;;
15116;SDS011;7659;51.038;13.786;2022-12-18T15:46:11;46.30;;;19.80;;
15116;SDS011;7659;51.038;13.786;2022-12-18T15:48:47;43.42;;;19.00;;
15116;SDS011;7659;51.038;13.786;2022-12-18T15:51:20;41.72;;;19.67;;
15116;SDS011;7659;51.038;13.786;2022-12-18T15:53:47;42.92;;;19.88;;
15116;SDS011;7659;51.038;13.786;2022-12-18T15:56:13;43.72;;;20.42;;
15116;SDS011;7659;51.038;13.786;2022-12-18T15:58:57;44.88;;;21.58;;
15116;SDS011;7659;51.038;13.786;2022-12-18T16:01:24;47.13;;;20.50;;
15116;SDS011;7659;51.038;13.786;2022-12-18T16:03:50;43.53;;;19.73;;
15116;SDS011;7659;51.038;13.786;2022-12-18T16:06:16;41.83;;;19.92;;
15116;SDS011;7659;51.038;13.786;2022-12-18T16:08:41;40.40;;;20.20;;
15116;SDS011;7659;51.038;13.786;2022-12-18T16:11:11;45.90;;;20.85;;
15116;SDS011;7659;51.038;13.786;2022-12-18T16:13:41;46.55;;;21.10;;
15116;SDS011;7659;51.038;13.786;2022-12-18T16:16:07;48.17;;;21.70;;
15116;SDS011;7659;51.038;13.786;2022-12-18T16:18:33;48.92;;;22.10;;
15116;SDS011;7659;51.038;13.786;2022-12-18T16:20:59;43.35;;;20.25;;
15116;SDS011;7659;51.038;13.786;2022-12-18T16:23:24;47.78;;;21.42;;
15116;SDS011;7659;51.038;13.786;2022-12-18T16:25:50;50.63;;;21.70;;
15116;SDS011;7659;51.038;13.786;2022-12-18T16:28:15;43.55;;;20.23;;
15116;SDS011;7659;51.038;13.786;2022-12-18T16:30:41;46.03;;;20.88;;
15116;SDS011;7659;51.038;13.786;2022-12-18T16:33:07;43.38;;;20.10;;
15116;SDS011;7659;51.038;13.786;2022-12-18T16:35:33;43.58;;;20.70;;
15116;SDS011;7659;51.038;13.786;2022-12-18T16:37:58;43.53;;;20.33;;
15116;SDS011;7659;51.038;13.786;2022-12-18T16:40:24;45.90;;;21.45;;
15116;SDS011;7659;51.038;13.786;2022-12-18T16:42:50;42.38;;;20.10;;